Time;durP1;ratioP1;P1;durP2;ratioP2;P2;SDS_P1;SDS_P2;PMS_P1;PMS_P2;Temp;Humidity;BMP_temperature;BMP_pressure;BME280_temperature;BME280_humidity;BME280_pressure;Samples;Min_cycle;Max_cycle;Signal;HPM_P1;HPM_P2
2023/09/05 00:01:03;;;;;;;27.50;6.35;;;24.50;74.20;;;;;;5028201;28;20097;-57
2023/09/05 00:03:31;;;;;;;24.25;5.63;;;24.50;74.20;;;;;;5045962;28;20097;-57
2023/09/05 00:06:04;;;;;;;18.70;5.32;;;24.50;74.30;;;;;;5046035;28;20411;-57
2023/09/05 00:08:30;;;;;;;21.40;5.97;;;24.50;74.30;;;;;;5012857;28;20034;-57
2023/09/05 00:11:00;;;;;;;14.43;5.28;;;24.40;74.30;;;;;;5045825;28;20072;-57
2023/09/05 00:13:26;;;;;;;17.40;4.97;;;24.40;74.30;;;;;;5046049;28;20045;-57
2023/09/05 00:15:52;;;;;;;14.43;4.68;;;24.40;74.20;;;;;;5045872;28;20026;-57
2023/09/05 00:18:18;;;;;;;15.25;5.35;;;24.40;74.20;;;;;;4995699;28;20030;-57
2023/09/05 00:20:45;;;;;;;19.92;4.72;;;24.40;74.30;;;;;;5045797;28;20037;-57
2023/09/05 00:23:10;;;;;;;14.77;5.18;;;24.40;74.30;;;;;;5045965;28;20038;-57
2023/09/05 00:25:36;;;;;;;17.95;4.88;;;24.30;74.30;;;;;;5028262;28;20592;-57
2023/09/05 00:28:03;;;;;;;20.20;4.97;;;24.30;74.20;;;;;;5028214;28;20441;-57
2023/09/05 00:30:29;;;;;;;16.17;5.47;;;24.30;74.30;;;;;;5031225;28;20108;-57
2023/09/05 00:32:54;;;;;;;12.82;4.90;;;24.30;74.40;;;;;;5032057;28;20053;-57
2023/09/05 00:35:20;;;;;;;16.67;5.13;;;24.20;74.50;;;;;;5049812;28;20048;-57
2023/09/05 00:37:47;;;;;;;16.38;4.45;;;24.20;74.50;;;;;;5049590;28;20037;-57
2023/09/05 00:40:12;;;;;;;15.88;4.70;;;24.20;74.40;;;;;;5031746;28;20481;-57
2023/09/05 00:42:38;;;;;;;14.07;5.05;;;24.20;74.50;;;;;;5031811;28;20041;-57
2023/09/05 00:45:05;;;;;;;12.02;4.68;;;24.20;74.50;;;;;;5031878;28;20050;-57
2023/09/05 00:47:32;;;;;;;15.02;4.32;;;24.10;74.50;;;;;;5015631;28;20068;-57
2023/09/05 00:49:58;;;;;;;8.15;3.90;;;24.10;74.50;;;;;;5031732;28;20101;-57
2023/09/05 00:52:25;;;;;;;13.50;4.97;;;24.10;74.60;;;;;;5031619;28;20038;-57
2023/09/05 00:54:51;;;;;;;14.48;4.82;;;24.10;74.60;;;;;;5049489;28;20029;-56
2023/09/05 00:57:19;;;;;;;13.10;4.38;;;24.10;74.70;;;;;;5033494;28;20150;-57
2023/09/05 00:59:45;;;;;;;11.88;4.40;;;24.10;74.60;;;;;;5032686;28;20477;-56
2023/09/05 01:02:10;;;;;;;12.15;4.63;;;24.00;74.60;;;;;;5031919;28;20068;-57
2023/09/05 01:04:36;;;;;;;8.40;3.90;;;24.00;74.60;;;;;;5033488;28;20022;-57
2023/09/05 01:07:16;;;;;;;14.48;4.53;;;24.00;74.60;;;;;;5051079;28;20465;-57
2023/09/05 01:09:51;;;;;;;16.73;4.68;;;24.00;74.80;;;;;;5051714;28;20036;-57
2023/09/05 01:12:16;;;;;;;14.57;4.77;;;23.90;74.70;;;;;;5049604;28;20097;-57
2023/09/05 01:14:42;;;;;;;13.15;3.88;;;23.90;74.80;;;;;;5034187;28;20628;-56
2023/09/05 01:17:07;;;;;;;11.68;4.30;;;23.90;75.00;;;;;;5050848;28;20128;-57
2023/09/05 01:19:36;;;;;;;9.27;3.78;;;23.80;75.00;;;;;;5049633;28;20047;-56
2023/09/05 01:22:27;;;;;;;11.85;4.22;;;23.80;75.00;;;;;;5050649;28;20037;-56
2023/09/05 01:24:52;;;;;;;10.32;4.18;;;23.80;75.00;;;;;;5068835;28;20029;-57
2023/09/05 01:27:19;;;;;;;8.05;4.18;;;23.80;75.00;;;;;;5036115;28;20112;-58
2023/09/05 01:29:45;;;;;;;5.28;3.30;;;23.80;75.10;;;;;;5034645;28;20059;-57
2023/09/05 01:32:10;;;;;;;6.53;3.38;;;23.70;75.20;;;;;;5050457;28;20451;-57
2023/09/05 01:34:37;;;;;;;5.18;3.65;;;23.70;75.20;;;;;;5016723;28;20504;-57
2023/09/05 01:37:02;;;;;;;9.23;4.18;;;23.70;75.30;;;;;;5050363;28;20477;-57
2023/09/05 01:39:28;;;;;;;9.93;3.80;;;23.70;75.20;;;;;;5050618;28;20032;-57
2023/09/05 01:41:53;;;;;;;11.48;3.97;;;23.70;75.30;;;;;;5048600;28;20063;-57
2023/09/05 01:44:19;;;;;;;9.32;3.47;;;23.60;75.20;;;;;;5050604;28;20041;-57
2023/09/05 01:46:44;;;;;;;9.38;4.00;;;23.60;75.30;;;;;;5050334;28;20029;-57
2023/09/05 01:49:10;;;;;;;7.28;3.35;;;23.60;75.40;;;;;;5049368;28;20064;-57
2023/09/05 01:51:36;;;;;;;7.80;3.97;;;23.60;75.40;;;;;;5050018;28;20136;-57
2023/09/05 01:54:02;;;;;;;10.55;3.50;;;23.60;75.40;;;;;;5033427;28;20037;-56
2023/09/05 01:56:27;;;;;;;13.35;4.18;;;23.50;75.40;;;;;;5048884;28;20033;-57
2023/09/05 01:58:53;;;;;;;9.43;3.83;;;23.50;75.60;;;;;;5050166;28;20037;-57
2023/09/05 02:01:19;;;;;;;14.13;3.65;;;23.50;75.60;;;;;;5033453;28;20045;-57
2023/09/05 02:03:45;;;;;;;9.35;3.97;;;23.50;75.60;;;;;;5066585;28;20445;-57
2023/09/05 02:06:12;;;;;;;9.77;4.18;;;23.50;75.70;;;;;;5050136;28;20045;-57
2023/09/05 02:08:38;;;;;;;8.23;3.83;;;23.40;75.70;;;;;;5050056;28;20092;-57
2023/09/05 02:11:04;;;;;;;6.60;3.75;;;23.40;75.70;;;;;;5066306;28;20041;-57
2023/09/05 02:13:29;;;;;;;8.93;4.15;;;23.40;75.90;;;;;;5033115;28;20044;-57
2023/09/05 02:15:55;;;;;;;11.45;4.18;;;23.40;75.90;;;;;;5033276;28;20035;-57
2023/09/05 02:18:20;;;;;;;10.27;4.30;;;23.30;75.90;;;;;;5066418;28;20037;-57
2023/09/05 02:20:46;;;;;;;8.32;3.63;;;23.30;75.90;;;;;;5049810;28;20055;-57
2023/09/05 02:23:12;;;;;;;4.75;3.40;;;23.30;76.60;;;;;;5033005;28;20045;-57
2023/09/05 02:25:37;;;;;;;6.60;4.00;;;23.30;76.00;;;;;;5066288;28;20032;-57
2023/09/05 02:28:03;;;;;;;9.70;3.80;;;23.30;76.10;;;;;;5032211;28;20037;-57
2023/09/05 02:30:29;;;;;;;9.50;3.95;;;23.20;76.00;;;;;;5065796;28;20041;-57
2023/09/05 02:32:55;;;;;;;7.68;3.65;;;23.20;76.10;;;;;;5049426;28;20074;-57
2023/09/05 02:35:24;;;;;;;6.53;3.80;;;23.20;76.20;;;;;;5067145;28;20059;-57
2023/09/05 02:37:51;;;;;;;11.60;3.60;;;23.20;76.20;;;;;;5044865;28;20049;-57
2023/09/05 02:40:16;;;;;;;8.52;4.15;;;23.10;76.30;;;;;;5029817;28;20071;-57
2023/09/05 02:42:42;;;;;;;6.03;3.80;;;23.10;76.30;;;;;;5046856;28;20069;-57
2023/09/05 02:45:08;;;;;;;7.88;3.67;;;23.10;76.30;;;;;;5046673;28;20125;-57
2023/09/05 02:47:34;;;;;;;7.30;3.95;;;23.10;76.40;;;;;;5032608;28;20040;-57
2023/09/05 02:49:59;;;;;;;4.28;3.63;;;23.10;76.40;;;;;;5066919;28;20064;-57
2023/09/05 02:52:25;;;;;;;5.53;3.30;;;23.00;76.40;;;;;;5047867;28;20167;-57
2023/09/05 02:54:51;;;;;;;9.48;3.60;;;23.00;76.40;;;;;;5067035;28;20071;-57
2023/09/05 02:57:16;;;;;;;5.30;3.45;;;23.00;76.50;;;;;;5066904;28;20445;-57
2023/09/05 02:59:42;;;;;;;8.80;3.58;;;22.90;76.40;;;;;;5048826;28;20120;-57
2023/09/05 03:02:07;;;;;;;6.32;3.40;;;23.00;76.50;;;;;;5065003;28;20124;-57
2023/09/05 03:04:33;;;;;;;8.43;3.35;;;22.90;76.40;;;;;;5032673;28;20029;-57
2023/09/05 03:07:02;;;;;;;7.53;3.03;;;22.90;76.40;;;;;;5048756;28;20061;-57
2023/09/05 03:09:28;;;;;;;13.68;3.95;;;22.90;76.50;;;;;;5065064;28;20028;-55
2023/09/05 03:11:54;;;;;;;7.20;3.67;;;22.90;76.60;;;;;;5051901;28;20033;-56
2023/09/05 03:14:19;;;;;;;6.22;3.50;;;22.90;76.60;;;;;;5031639;28;20035;-56
2023/09/05 03:16:45;;;;;;;11.48;3.50;;;22.80;76.60;;;;;;5048433;28;20031;-57
2023/09/05 03:19:11;;;;;;;8.32;3.67;;;22.80;76.70;;;;;;5048876;28;20051;-57
2023/09/05 03:21:40;;;;;;;6.28;3.80;;;22.80;76.80;;;;;;5047120;28;20070;-57
2023/09/05 03:24:06;;;;;;;7.35;3.58;;;22.80;76.80;;;;;;5066332;28;20505;-57
2023/09/05 03:26:31;;;;;;;5.82;3.13;;;22.80;76.80;;;;;;5048433;28;20037;-57
2023/09/05 03:28:59;;;;;;;5.90;3.50;;;22.70;76.80;;;;;;5030670;28;20041;-57
2023/09/05 03:31:28;;;;;;;8.23;3.30;;;22.70;76.80;;;;;;5066303;28;20044;-57
2023/09/05 03:33:54;;;;;;;10.80;4.25;;;22.70;76.90;;;;;;5048854;28;20474;-57
2023/09/05 03:36:21;;;;;;;8.85;3.95;;;22.70;76.80;;;;;;5062188;28;20074;-57
2023/09/05 03:38:47;;;;;;;6.43;3.53;;;22.70;76.90;;;;;;5048451;28;20037;-56
2023/09/05 03:41:12;;;;;;;6.30;3.60;;;22.60;76.90;;;;;;5048472;28;20039;-57
2023/09/05 03:43:38;;;;;;;7.43;3.80;;;22.60;77.00;;;;;;5014270;28;20048;-57
2023/09/05 03:46:03;;;;;;;5.85;3.72;;;22.60;77.60;;;;;;5032092;28;20041;-57
2023/09/05 03:48:29;;;;;;;5.35;4.07;;;22.70;77.00;;;;;;5031580;28;20041;-56
2023/09/05 03:50:54;;;;;;;6.32;3.60;;;22.60;77.00;;;;;;5064679;28;20036;-57
2023/09/05 03:53:20;;;;;;;7.32;3.50;;;22.60;77.00;;;;;;5048041;28;20040;-57
2023/09/05 03:55:47;;;;;;;6.72;3.45;;;22.60;77.10;;;;;;5065834;28;20037;-57
2023/09/05 03:58:13;;;;;;;5.03;3.72;;;22.50;77.20;;;;;;5047354;28;20116;-56
2023/09/05 04:00:38;;;;;;;6.88;3.97;;;22.50;77.20;;;;;;5048245;28;20041;-57
2023/09/05 04:03:04;;;;;;;5.22;3.20;;;22.50;77.20;;;;;;5047564;28;20516;-56
2023/09/05 04:05:30;;;;;;;8.75;4.25;;;22.50;77.20;;;;;;5031056;28;20037;-57
2023/09/05 04:07:55;;;;;;;6.75;3.47;;;22.50;77.30;;;;;;5054930;28;20072;-57
2023/09/05 04:10:22;;;;;;;10.52;3.80;;;22.50;77.30;;;;;;5035699;28;20057;-57
2023/09/05 04:12:49;;;;;;;4.22;3.60;;;22.40;77.30;;;;;;5068878;28;20103;-57
2023/09/05 04:15:20;;;;;;;6.70;3.50;;;22.40;77.30;;;;;;5035766;28;20025;-57
2023/09/05 04:17:46;;;;;;;5.63;3.38;;;22.40;77.40;;;;;;5069858;28;20056;-57
2023/09/05 04:20:13;;;;;;;6.75;3.33;;;22.40;77.50;;;;;;5034825;28;20047;-56
2023/09/05 04:22:38;;;;;;;5.50;3.83;;;22.30;77.60;;;;;;5035432;28;20040;-56
2023/09/05 04:25:04;;;;;;;5.40;3.95;;;22.30;77.70;;;;;;5069830;28;20064;-57
2023/09/05 04:27:30;;;;;;;7.57;3.63;;;22.30;77.70;;;;;;5068072;28;20114;-57
2023/09/05 04:29:55;;;;;;;5.85;3.47;;;22.30;77.80;;;;;;5069645;28;20041;-56
2023/09/05 04:32:28;;;;;;;4.30;3.40;;;22.30;77.80;;;;;;5050172;28;20060;-57
2023/09/05 04:34:58;;;;;;;4.47;3.38;;;22.30;77.80;;;;;;5052739;28;20032;-57
2023/09/05 04:37:24;;;;;;;5.97;3.63;;;22.30;77.80;;;;;;5069362;28;20104;-57
2023/09/05 04:39:50;;;;;;;6.10;4.18;;;22.30;77.80;;;;;;5069585;28;20029;-57
2023/09/05 04:42:15;;;;;;;5.40;4.38;;;22.20;77.90;;;;;;5050630;28;20503;-56
2023/09/05 04:44:41;;;;;;;7.88;4.55;;;22.20;78.00;;;;;;5051584;28;20040;-57
2023/09/05 04:47:21;;;;;;;9.38;4.18;;;22.20;78.20;;;;;;5051335;28;20047;-56
2023/09/05 04:49:57;;;;;;;8.02;3.78;;;22.10;78.20;;;;;;5067613;28;20040;-57
2023/09/05 04:52:24;;;;;;;6.75;4.10;;;22.10;78.20;;;;;;5036171;28;20033;-56
2023/09/05 04:54:49;;;;;;;5.65;3.78;;;22.10;78.30;;;;;;5051024;28;20172;-57
2023/09/05 04:57:16;;;;;;;9.57;3.83;;;22.00;78.30;;;;;;5030545;28;20037;-57
2023/09/05 04:59:46;;;;;;;5.05;4.03;;;22.10;78.40;;;;;;5049125;28;20030;-56
2023/09/05 05:02:11;;;;;;;6.40;3.88;;;22.00;78.50;;;;;;5031612;28;20053;-57
2023/09/05 05:04:37;;;;;;;6.72;4.18;;;22.00;78.50;;;;;;5052278;28;20041;-56
2023/09/05 05:07:03;;;;;;;7.93;4.15;;;22.00;78.50;;;;;;5051388;28;20064;-57
2023/09/05 05:09:28;;;;;;;8.20;4.13;;;22.00;78.60;;;;;;5067654;28;20370;-57
2023/09/05 05:11:55;;;;;;;7.38;4.22;;;21.90;78.60;;;;;;5051048;28;20045;-57
2023/09/05 05:14:21;;;;;;;8.20;4.15;;;21.90;78.60;;;;;;5050010;28;20089;-57
2023/09/05 05:16:46;;;;;;;6.20;4.20;;;21.90;78.60;;;;;;5050191;28;20087;-57
2023/09/05 05:19:12;;;;;;;7.57;3.95;;;21.80;78.70;;;;;;5068990;28;20033;-56
2023/09/05 05:21:38;;;;;;;7.15;3.97;;;21.90;78.70;;;;;;5050936;28;20033;-55
2023/09/05 05:24:05;;;;;;;11.32;4.22;;;21.80;78.60;;;;;;5049545;28;20055;-57
2023/09/05 05:26:31;;;;;;;10.57;3.70;;;21.80;78.70;;;;;;5050120;28;20044;-57
2023/09/05 05:28:56;;;;;;;6.38;4.05;;;21.80;78.70;;;;;;5068632;28;20045;-57
2023/09/05 05:31:23;;;;;;;7.97;3.85;;;21.80;78.80;;;;;;5066294;28;20049;-57
2023/09/05 05:33:49;;;;;;;8.55;4.45;;;21.80;78.80;;;;;;5068232;28;20382;-57
2023/09/05 05:36:14;;;;;;;5.00;3.90;;;21.70;78.80;;;;;;5032203;28;20033;-57
2023/09/05 05:38:40;;;;;;;8.60;4.05;;;21.80;78.80;;;;;;5049555;28;20037;-57
2023/09/05 05:41:09;;;;;;;6.00;3.63;;;21.70;78.80;;;;;;5033296;28;20040;-57
2023/09/05 05:43:35;;;;;;;5.85;3.42;;;21.70;78.60;;;;;;5031248;28;20127;-56
2023/09/05 05:46:00;;;;;;;5.70;4.03;;;21.70;78.60;;;;;;5048372;28;20042;-56
2023/09/05 05:48:26;;;;;;;7.45;3.65;;;21.60;78.40;;;;;;5033459;28;20044;-57
2023/09/05 05:50:51;;;;;;;9.40;3.88;;;21.60;78.50;;;;;;5067650;28;20174;-57
2023/09/05 05:53:20;;;;;;;5.93;3.65;;;21.50;78.60;;;;;;5044053;28;20033;-57
2023/09/05 05:55:46;;;;;;;5.47;3.40;;;21.40;78.60;;;;;;5030681;28;20476;-57
2023/09/05 05:58:13;;;;;;;5.72;3.42;;;21.40;78.60;;;;;;5009860;28;20029;-57
2023/09/05 06:00:50;;;;;;;5.30;3.70;;;21.30;78.50;;;;;;5017317;28;20040;-56
2023/09/05 06:03:22;;;;;;;5.50;3.20;;;21.20;78.40;;;;;;5051222;28;20060;-57
2023/09/05 06:05:48;;;;;;;4.18;3.38;;;21.10;78.50;;;;;;5033414;28;20096;-57
2023/09/05 06:08:13;;;;;;;5.40;3.33;;;21.10;78.60;;;;;;5049602;28;20033;-57
2023/09/05 06:10:39;;;;;;;9.02;3.80;;;21.10;78.70;;;;;;5049446;28;20112;-57
2023/09/05 06:13:05;;;;;;;7.20;3.60;;;21.00;78.80;;;;;;5048934;28;20025;-56
2023/09/05 06:15:33;;;;;;;7.38;3.72;;;21.00;78.90;;;;;;5046629;28;20132;-57
2023/09/05 06:18:02;;;;;;;7.28;3.92;;;21.10;79.20;;;;;;5045696;28;20041;-57
2023/09/05 06:20:34;;;;;;;11.13;3.42;;;21.00;79.30;;;;;;5045039;28;20068;-57
2023/09/05 06:23:00;;;;;;;7.65;3.78;;;21.00;79.30;;;;;;5064918;28;20037;-57
2023/09/05 06:25:26;;;;;;;10.68;4.35;;;21.00;79.30;;;;;;4998678;28;20053;-57
2023/09/05 06:27:52;;;;;;;9.65;4.13;;;20.90;79.30;;;;;;5064783;28;20045;-56
2023/09/05 06:30:17;;;;;;;10.02;4.47;;;20.90;79.30;;;;;;5064443;28;20084;-56
2023/09/05 06:32:43;;;;;;;10.18;3.72;;;20.90;79.40;;;;;;5046998;28;20040;-57
2023/09/05 06:35:09;;;;;;;14.13;4.57;;;20.80;79.40;;;;;;5063506;28;20021;-57
2023/09/05 06:37:36;;;;;;;14.48;4.32;;;20.80;79.40;;;;;;5048062;28;20033;-57
2023/09/05 06:40:06;;;;;;;9.65;4.45;;;20.80;79.40;;;;;;5032358;28;20112;-57
2023/09/05 06:42:32;;;;;;;33.75;6.38;;;20.80;79.40;;;;;;5066265;28;20033;-57
2023/09/05 06:44:58;;;;;;;8.60;3.90;;;20.80;79.30;;;;;;5060573;28;20099;-57
2023/09/05 06:47:23;;;;;;;14.13;3.88;;;20.70;79.20;;;;;;5045520;28;20047;-57
2023/09/05 06:49:49;;;;;;;11.77;3.92;;;20.70;79.20;;;;;;5061904;28;20108;-57
2023/09/05 06:52:14;;;;;;;13.57;4.47;;;20.70;79.20;;;;;;5061079;28;20130;-57
2023/09/05 06:54:40;;;;;;;11.18;3.90;;;20.70;79.20;;;;;;5061876;28;20485;-56
2023/09/05 06:57:08;;;;;;;14.15;4.90;;;20.70;79.20;;;;;;5045220;28;20086;-57
2023/09/05 06:59:35;;;;;;;21.67;4.57;;;20.70;79.20;;;;;;5060619;28;20040;-57
2023/09/05 07:02:02;;;;;;;17.67;4.35;;;20.70;79.20;;;;;;5043855;28;20056;-57
2023/09/05 07:04:31;;;;;;;24.48;4.47;;;20.70;79.20;;;;;;5046960;28;20191;-57
2023/09/05 07:07:01;;;;;;;48.75;8.48;;;20.70;79.40;;;;;;5058850;28;20060;-57
2023/09/05 07:09:26;;;;;;;161.55;20.05;;;20.70;79.40;;;;;;5056689;28;20037;-57
2023/09/05 07:15:14;;;;;;;65.28;10.20;;;20.70;79.40;;;;;;5363957;22;20072;-84
2023/09/05 07:17:40;;;;;;;49.00;6.72;;;20.60;79.70;;;;;;5082147;28;20452;-85
2023/09/05 07:20:09;;;;;;;22.67;5.40;;;20.60;80.50;;;;;;5047031;28;20045;-85
2023/09/05 07:22:35;;;;;;;52.05;8.85;;;20.60;79.60;;;;;;5061365;28;20040;-84
2023/09/05 07:25:01;;;;;;;31.15;6.05;;;20.70;79.70;;;;;;5075673;28;20060;-85
2023/09/05 07:27:27;;;;;;;29.58;6.15;;;20.60;79.90;;;;;;5043809;28;20033;-85
2023/09/05 07:29:53;;;;;;;19.55;5.13;;;20.60;80.50;;;;;;5084467;28;20060;-89
2023/09/05 07:32:18;;;;;;;43.15;7.60;;;20.80;80.40;;;;;;5048399;28;20660;-86
2023/09/05 07:34:44;;;;;;;351.92;44.13;;;20.70;80.40;;;;;;5043436;28;20048;-86
2023/09/05 07:37:10;;;;;;;76.60;11.55;;;20.80;80.80;;;;;;5047146;28;20049;-87
2023/09/05 07:39:36;;;;;;;76.15;12.07;;;20.60;80.80;;;;;;5064248;28;20460;-85
2023/09/05 07:42:02;;;;;;;69.00;12.30;;;20.60;81.10;;;;;;5060659;28;20069;-85
2023/09/05 07:47:03;;;;;;;106.65;16.10;;;20.60;80.80;;;;;;564168;26;20330;-55
2023/09/05 07:49:31;;;;;;;76.70;12.90;;;20.60;80.90;;;;;;5062311;28;20094;-58
2023/09/05 07:51:57;;;;;;;64.30;12.75;;;20.50;81.00;;;;;;5053970;28;20049;-58
2023/09/05 07:54:25;;;;;;;96.25;13.73;;;20.60;81.20;;;;;;5081983;28;20028;-58
2023/09/05 07:56:51;;;;;;;73.68;12.32;;;20.60;81.30;;;;;;5066359;28;20036;-57
2023/09/05 07:59:16;;;;;;;103.22;14.55;;;20.60;81.60;;;;;;5050539;28;20028;-58
2023/09/05 08:01:42;;;;;;;93.50;13.70;;;20.60;81.80;;;;;;5064841;28;20104;-58
2023/09/05 08:04:07;;;;;;;84.25;12.30;;;20.60;81.90;;;;;;5065739;28;20051;-57
2023/09/05 08:06:33;;;;;;;129.18;17.10;;;20.60;82.00;;;;;;5084792;28;20037;-58
2023/09/05 08:08:59;;;;;;;109.15;13.25;;;20.60;82.00;;;;;;5044834;28;20033;-58
2023/09/05 08:11:25;;;;;;;74.60;12.18;;;20.60;82.10;;;;;;5083998;28;20043;-58
2023/09/05 08:13:51;;;;;;;51.58;8.30;;;20.70;82.30;;;;;;5065480;28;20041;-58
2023/09/05 08:16:16;;;;;;;44.47;7.43;;;20.70;82.70;;;;;;5066462;28;20037;-58
2023/09/05 08:18:42;;;;;;;45.22;7.60;;;20.70;82.70;;;;;;5055742;28;20028;-57
2023/09/05 08:21:07;;;;;;;43.67;7.35;;;20.70;83.00;;;;;;5084478;28;20033;-58
2023/09/05 08:23:33;;;;;;;46.58;7.65;;;20.70;83.00;;;;;;5066349;28;20032;-57
2023/09/05 08:26:00;;;;;;;47.72;7.85;;;20.70;83.20;;;;;;5083852;28;20036;-58
2023/09/05 08:28:26;;;;;;;54.40;8.45;;;20.70;83.00;;;;;;5083950;28;20029;-58
2023/09/05 08:30:59;;;;;;;52.08;9.35;;;20.70;83.10;;;;;;5066645;28;20045;-58
2023/09/05 08:33:25;;;;;;;71.95;10.60;;;20.70;83.50;;;;;;5084242;28;20032;-58
2023/09/05 08:35:52;;;;;;;44.05;7.72;;;20.70;83.70;;;;;;5064365;28;20043;-58
2023/09/05 08:38:17;;;;;;;31.70;7.50;;;20.70;83.70;;;;;;5080454;28;20086;-58
2023/09/05 08:40:45;;;;;;;34.95;7.75;;;20.70;83.80;;;;;;5063942;28;20040;-58
2023/09/05 08:43:10;;;;;;;28.00;6.53;;;20.70;83.80;;;;;;5060206;28;20049;-58
2023/09/05 08:45:36;;;;;;;31.90;6.75;;;20.70;84.30;;;;;;5064581;28;20044;-58
2023/09/05 08:48:02;;;;;;;34.33;6.72;;;20.70;83.60;;;;;;5041315;28;20056;-58
2023/09/05 08:50:28;;;;;;;32.53;7.38;;;20.80;83.90;;;;;;5066255;28;20041;-53
2023/09/05 08:52:54;;;;;;;27.40;6.13;;;20.80;83.90;;;;;;5069103;28;20037;-54
2023/09/05 08:55:20;;;;;;;36.95;5.82;;;20.80;84.00;;;;;;5084213;28;20048;-54
2023/09/05 08:57:49;;;;;;;29.92;5.93;;;20.80;83.80;;;;;;5033115;28;20037;-54
2023/09/05 09:00:17;;;;;;;32.35;5.47;;;20.80;84.20;;;;;;5053657;28;20052;-55
2023/09/05 09:02:43;;;;;;;30.00;7.05;;;20.80;84.60;;;;;;5088362;28;20111;-54
2023/09/05 09:05:09;;;;;;;30.10;6.32;;;20.80;84.70;;;;;;5080749;28;20060;-54
2023/09/05 09:07:35;;;;;;;16.50;6.15;;;20.80;84.60;;;;;;5052918;28;20032;-54
2023/09/05 09:10:18;;;;;;;32.35;6.78;;;20.90;84.70;;;;;;5082370;28;20044;-54
2023/09/05 09:12:44;;;;;;;33.35;5.40;;;20.90;84.80;;;;;;5056824;28;20037;-54
2023/09/05 09:15:10;;;;;;;28.77;6.20;;;20.90;84.60;;;;;;5068377;28;20481;-53
2023/09/05 09:17:36;;;;;;;26.65;6.63;;;20.90;84.70;;;;;;5080386;28;20036;-53
2023/09/05 09:20:06;;;;;;;26.80;6.95;;;21.00;85.00;;;;;;5051991;28;20043;-54
2023/09/05 09:22:31;;;;;;;45.80;7.45;;;21.00;84.80;;;;;;5083313;28;20029;-54
2023/09/05 09:24:57;;;;;;;42.53;7.32;;;21.00;85.10;;;;;;5066776;28;20034;-53
2023/09/05 09:27:23;;;;;;;65.70;9.95;;;21.10;85.20;;;;;;5082130;28;20431;-54
2023/09/05 09:29:55;;;;;;;48.03;8.57;;;21.10;84.90;;;;;;5065075;28;20063;-53
2023/09/05 09:32:24;;;;;;;32.80;8.07;;;21.10;84.80;;;;;;5088080;28;20036;-53
2023/09/05 09:34:50;;;;;;;53.08;8.23;;;21.10;85.10;;;;;;5061913;28;20035;-53
2023/09/05 09:37:25;;;;;;;79.13;12.27;;;21.20;85.20;;;;;;5053545;28;20037;-53
2023/09/05 09:39:58;;;;;;;85.05;13.73;;;21.20;85.00;;;;;;5052516;28;20040;-53
2023/09/05 09:42:24;;;;;;;93.50;13.68;;;21.20;84.80;;;;;;5065047;28;20039;-53
2023/09/05 09:44:50;;;;;;;58.03;11.20;;;21.30;85.40;;;;;;5064156;28;20260;-53
2023/09/05 09:47:15;;;;;;;75.68;11.77;;;21.30;85.10;;;;;;5065359;28;20044;-54
2023/09/05 09:49:42;;;;;;;99.07;16.55;;;21.30;85.20;;;;;;5069623;28;20063;-53
2023/09/05 09:52:10;;;;;;;130.93;16.73;;;21.40;84.90;;;;;;5052562;28;20040;-54
2023/09/05 09:54:39;;;;;;;161.82;23.15;;;21.40;85.10;;;;;;5066752;28;20112;-53
2023/09/05 09:57:05;;;;;;;98.93;15.18;;;21.40;85.10;;;;;;5083234;28;20476;-51
2023/09/05 09:59:35;;;;;;;101.32;15.25;;;21.40;85.30;;;;;;5076893;28;20044;-53
2023/09/05 10:02:08;;;;;;;93.50;13.13;;;21.50;85.50;;;;;;5065853;28;20086;-53
2023/09/05 10:04:35;;;;;;;81.57;12.57;;;21.50;85.70;;;;;;5059275;28;20059;-54
2023/09/05 10:07:07;;;;;;;81.45;16.15;;;21.50;85.80;;;;;;5064881;28;20068;-53
2023/09/05 10:09:36;;;;;;;111.90;17.45;;;21.60;85.20;;;;;;5048690;28;20071;-54
2023/09/05 10:12:02;;;;;;;90.80;14.80;;;21.70;85.10;;;;;;5074077;28;20055;-53
2023/09/05 10:14:29;;;;;;;99.32;15.05;;;21.70;85.40;;;;;;5067176;28;20485;-53
2023/09/05 10:16:55;;;;;;;99.60;15.35;;;21.70;85.70;;;;;;5061354;28;20056;-53
2023/09/05 10:19:21;;;;;;;82.93;14.80;;;21.70;85.90;;;;;;5061839;28;20036;-54
2023/09/05 10:21:47;;;;;;;112.30;14.45;;;21.80;85.60;;;;;;5084320;28;20041;-54
2023/09/05 10:24:14;;;;;;;78.88;13.77;;;21.80;85.50;;;;;;5065576;28;20033;-53
2023/09/05 10:26:39;;;;;;;91.85;13.27;;;21.90;85.70;;;;;;5050172;28;20047;-54
2023/09/05 10:29:33;;;;;;;89.45;13.30;;;21.90;85.80;;;;;;5066950;28;20481;-53
2023/09/05 10:32:00;;;;;;;90.80;13.68;;;22.00;85.40;;;;;;5083791;28;20127;-51
2023/09/05 10:34:48;;;;;;;67.15;11.23;;;22.00;85.10;;;;;;5082188;28;20021;-53
2023/09/05 10:37:26;;;;;;;79.18;11.82;;;22.00;85.40;;;;;;5066889;28;20040;-54
2023/09/05 10:40:00;;;;;;;75.25;11.32;;;22.10;85.70;;;;;;5084265;28;20036;-52
2023/09/05 10:42:29;;;;;;;55.60;10.82;;;22.10;86.00;;;;;;5033245;28;20032;-54
2023/09/05 10:44:55;;;;;;;72.90;11.05;;;22.10;86.60;;;;;;5066467;28;20059;-54
2023/09/05 10:47:33;;;;;;;84.78;12.25;;;22.20;85.80;;;;;;5067499;28;20040;-54
2023/09/05 10:50:05;;;;;;;62.85;11.00;;;22.20;85.70;;;;;;5065050;28;20170;-53
2023/09/05 10:52:31;;;;;;;77.95;12.75;;;22.30;85.70;;;;;;5048316;28;20033;-52
2023/09/05 10:54:58;;;;;;;66.63;11.45;;;22.30;86.00;;;;;;5064063;28;20044;-54
2023/09/05 10:57:36;;;;;;;86.20;13.40;;;22.40;85.80;;;;;;5050664;28;20028;-53
2023/09/05 11:00:15;;;;;;;65.15;11.43;;;22.50;85.50;;;;;;5067252;28;20025;-54
2023/09/05 11:02:41;;;;;;;57.25;9.68;;;22.50;86.00;;;;;;5081919;28;20036;-53
2023/09/05 11:05:18;;;;;;;50.80;9.55;;;22.50;85.80;;;;;;5047503;28;20037;-53
2023/09/05 11:07:45;;;;;;;45.97;9.52;;;22.50;85.80;;;;;;5063125;28;20035;-53
2023/09/05 11:10:13;;;;;;;39.53;9.07;;;22.50;85.80;;;;;;5062841;28;20543;-53
2023/09/05 11:12:39;;;;;;;48.83;10.10;;;22.60;85.90;;;;;;5078891;28;20033;-51
2023/09/05 11:15:06;;;;;;;57.00;9.88;;;22.70;86.10;;;;;;5074074;28;20036;-51
2023/09/05 11:17:31;;;;;;;36.33;9.60;;;22.70;85.90;;;;;;5062457;28;20079;-52
2023/09/05 11:19:57;;;;;;;45.28;8.88;;;22.80;85.90;;;;;;5061829;28;20052;-54
2023/09/05 11:22:23;;;;;;;48.40;9.20;;;22.90;85.80;;;;;;5082536;28;20028;-54
2023/09/05 11:24:50;;;;;;;48.42;8.00;;;22.90;85.50;;;;;;5059389;28;20036;-54
2023/09/05 11:27:26;;;;;;;42.03;8.45;;;22.90;85.40;;;;;;5060138;28;20036;-52
2023/09/05 11:29:58;;;;;;;52.92;8.32;;;23.00;85.40;;;;;;5063501;28;20033;-54
2023/09/05 11:32:32;;;;;;;52.17;8.23;;;23.00;85.20;;;;;;5059176;28;20044;-53
2023/09/05 11:34:57;;;;;;;48.05;8.50;;;23.10;85.10;;;;;;5065427;28;20033;-54
2023/09/05 11:37:23;;;;;;;48.28;8.70;;;23.20;84.80;;;;;;5066548;28;20037;-54
2023/09/05 11:39:49;;;;;;;44.35;8.55;;;23.30;84.60;;;;;;5083588;28;20495;-54
2023/09/05 11:42:16;;;;;;;51.13;9.23;;;23.30;84.40;;;;;;5052008;28;20037;-54
2023/09/05 11:44:42;;;;;;;51.33;8.82;;;23.40;84.10;;;;;;5083951;28;20070;-54
2023/09/05 11:47:07;;;;;;;51.30;8.00;;;23.50;84.00;;;;;;5047667;28;20145;-54
2023/09/05 11:49:33;;;;;;;41.50;8.38;;;23.60;83.80;;;;;;5049988;28;20064;-54
2023/09/05 11:52:00;;;;;;;55.15;8.35;;;23.60;83.60;;;;;;5049381;28;20111;-54
2023/09/05 11:54:27;;;;;;;33.97;6.40;;;23.70;83.40;;;;;;5065395;28;20049;-54
2023/09/05 11:56:52;;;;;;;42.22;7.15;;;23.80;82.90;;;;;;5045360;28;20479;-54
2023/09/05 11:59:18;;;;;;;42.65;7.78;;;23.90;82.70;;;;;;5062507;28;20097;-54
2023/09/05 12:01:43;;;;;;;38.75;7.00;;;24.00;82.40;;;;;;5079409;28;20033;-54
2023/09/05 12:04:09;;;;;;;26.25;6.45;;;24.10;82.20;;;;;;5047377;28;20182;-54
2023/09/05 12:06:35;;;;;;;28.08;6.18;;;24.10;82.00;;;;;;5079340;28;20110;-54
2023/09/05 12:09:01;;;;;;;46.65;7.03;;;24.10;81.80;;;;;;5061012;28;20037;-54
2023/09/05 12:11:27;;;;;;;32.00;6.18;;;24.20;81.70;;;;;;5060116;28;20032;-52
2023/09/05 12:13:56;;;;;;;30.27;6.40;;;24.30;81.30;;;;;;5063516;28;20031;-52
2023/09/05 12:16:22;;;;;;;20.38;6.07;;;24.30;81.00;;;;;;5081613;28;20108;-52
2023/09/05 12:18:48;;;;;;;45.80;8.18;;;24.40;80.80;;;;;;5075982;28;20059;-52
2023/09/05 12:21:14;;;;;;;29.70;5.70;;;24.50;80.50;;;;;;5063682;28;20094;-53
2023/09/05 12:23:39;;;;;;;25.98;6.28;;;24.50;80.10;;;;;;5081479;28;20029;-54
2023/09/05 12:26:06;;;;;;;31.35;6.18;;;24.50;80.00;;;;;;5066657;28;20055;-54
2023/09/05 12:28:31;;;;;;;25.50;5.82;;;24.60;79.90;;;;;;5081536;28;20111;-54
2023/09/05 12:31:08;;;;;;;28.27;5.63;;;24.60;79.60;;;;;;5065231;28;20049;-54
2023/09/05 12:33:34;;;;;;;22.77;6.07;;;24.70;79.50;;;;;;5061612;28;20055;-54
2023/09/05 12:35:59;;;;;;;22.38;5.20;;;24.70;79.30;;;;;;5065638;28;20033;-54
2023/09/05 12:38:25;;;;;;;46.47;6.57;;;24.80;79.30;;;;;;5085209;28;20033;-54
2023/09/05 12:40:50;;;;;;;42.05;6.30;;;24.80;79.20;;;;;;5067411;28;20044;-54
2023/09/05 12:43:16;;;;;;;20.65;4.97;;;24.80;79.00;;;;;;5065087;28;20032;-54